createdAt,value
2018-08-22T00:00:13.987Z,0.00
2018-08-22T00:01:13.954Z,0.00
2018-08-22T00:02:13.923Z,0.00
2018-08-22T00:03:13.889Z,0.00
2018-08-22T00:04:13.857Z,0.00
2018-08-22T00:05:13.826Z,0.00
2018-08-22T00:06:13.791Z,0.00
2018-08-22T00:07:13.766Z,0.00
2018-08-22T00:08:13.730Z,0.09
2018-08-22T00:09:13.698Z,1.06
2018-08-22T00:10:13.662Z,0.38
2018-08-22T00:11:13.638Z,0.38
2018-08-22T00:12:13.603Z,2.31
2018-08-22T00:13:13.572Z,3.08
2018-08-22T00:14:13.541Z,1.92
2018-08-22T00:15:13.520Z,1.92
2018-08-22T00:16:13.472Z,0.38
2018-08-22T00:17:13.441Z,0.00
2018-08-22T00:18:13.410Z,0.00
2018-08-22T00:19:13.380Z,0.00
2018-08-22T00:20:13.345Z,0.00
2018-08-22T00:21:13.314Z,0.00
2018-08-22T00:22:13.285Z,0.00
2018-08-22T00:23:13.246Z,0.00
2018-08-22T00:24:13.216Z,0.00
2018-08-22T00:25:13.198Z,0.00
2018-08-22T00:26:13.162Z,0.00
2018-08-22T00:27:13.118Z,0.00
2018-08-22T00:28:13.101Z,0.00
2018-08-22T00:29:13.069Z,0.00
2018-08-22T00:30:13.032Z,0.00
2018-08-22T00:31:12.995Z,0.00
2018-08-22T00:32:12.966Z,0.00
2018-08-22T00:33:12.933Z,0.00
2018-08-22T00:34:12.900Z,0.00
2018-08-22T00:35:12.863Z,0.00
2018-08-22T00:36:12.832Z,0.00
2018-08-22T00:37:12.802Z,0.00
2018-08-22T00:38:12.765Z,0.00
2018-08-22T00:39:12.738Z,0.00
2018-08-22T00:40:12.705Z,0.00
2018-08-22T00:41:12.670Z,0.00
2018-08-22T00:42:12.638Z,0.00
2018-08-22T00:43:12.609Z,0.00
2018-08-22T00:44:12.577Z,0.00
2018-08-22T00:45:12.544Z,0.00
2018-08-22T00:46:12.514Z,0.00
2018-08-22T00:47:12.476Z,0.00
2018-08-22T00:48:12.445Z,0.00
2018-08-22T00:49:12.413Z,0.00
2018-08-22T00:50:12.383Z,0.00
2018-08-22T00:51:12.352Z,0.00
2018-08-22T00:52:12.318Z,0.00
2018-08-22T00:53:12.287Z,0.00
2018-08-22T00:54:12.257Z,0.00
2018-08-22T00:55:12.220Z,0.09
2018-08-22T00:56:12.188Z,0.29
2018-08-22T00:57:12.158Z,0.67
2018-08-22T00:58:12.129Z,1.06
2018-08-22T00:59:12.089Z,1.15
2018-08-22T01:00:12.059Z,0.67
2018-08-22T01:01:12.076Z,0.38
2018-08-22T01:02:11.994Z,0.57
2018-08-22T01:03:11.967Z,0.38
2018-08-22T01:04:11.936Z,0.00
2018-08-22T01:05:11.908Z,0.00
2018-08-22T01:06:11.870Z,0.00
2018-08-22T01:07:11.838Z,0.00
2018-08-22T01:08:11.801Z,0.00
2018-08-22T01:09:11.781Z,0.00
2018-08-22T01:10:11.741Z,0.00
2018-08-22T01:11:11.713Z,0.00
2018-08-22T01:12:11.681Z,0.00
2018-08-22T01:13:11.645Z,0.00
2018-08-22T01:14:11.610Z,0.00
2018-08-22T01:15:11.579Z,0.00
2018-08-22T01:16:11.549Z,0.00
2018-08-22T01:17:11.519Z,0.00
2018-08-22T01:18:11.484Z,0.00
2018-08-22T01:19:11.449Z,0.00
2018-08-22T01:20:11.416Z,0.00
2018-08-22T01:21:11.381Z,0.09
2018-08-22T01:22:11.351Z,0.09
2018-08-22T01:23:11.321Z,0.29
2018-08-22T01:24:11.290Z,0.29
2018-08-22T01:25:11.258Z,0.29
2018-08-22T01:26:11.227Z,0.00
2018-08-22T01:27:11.189Z,0.00
2018-08-22T01:28:11.157Z,0.00
2018-08-22T01:29:11.132Z,0.00
2018-08-22T01:30:11.095Z,0.00
2018-08-22T01:31:11.060Z,0.00
2018-08-22T01:32:11.030Z,0.00
2018-08-22T01:33:10.995Z,0.00
2018-08-22T01:34:10.964Z,0.00
2018-08-22T01:35:10.932Z,0.00
2018-08-22T01:36:10.903Z,0.00
2018-08-22T01:37:10.870Z,0.00
2018-08-22T01:38:10.836Z,0.00
2018-08-22T01:39:10.803Z,0.00
2018-08-22T01:40:10.767Z,0.00
2018-08-22T01:41:10.735Z,0.00
2018-08-22T01:42:10.707Z,0.00
2018-08-22T01:43:10.675Z,0.00
2018-08-22T01:44:10.645Z,0.00
2018-08-22T01:45:10.608Z,0.00
2018-08-22T01:46:10.576Z,0.00
2018-08-22T01:47:10.546Z,0.00
2018-08-22T01:48:10.514Z,0.00
2018-08-22T01:49:10.482Z,0.00
2018-08-22T01:50:10.448Z,0.00
2018-08-22T01:51:10.417Z,0.00
2018-08-22T01:52:10.381Z,0.00
2018-08-22T01:53:10.348Z,0.00
2018-08-22T01:54:10.317Z,0.00
2018-08-22T01:55:10.286Z,0.00
2018-08-22T01:56:10.257Z,0.00
2018-08-22T01:57:10.226Z,0.00
2018-08-22T01:58:10.193Z,0.00
2018-08-22T01:59:10.155Z,0.00
2018-08-22T02:00:10.121Z,0.00
2018-08-22T02:01:10.095Z,0.00
2018-08-22T02:02:10.067Z,0.00
2018-08-22T02:03:10.034Z,0.00
2018-08-22T02:04:10.003Z,0.00
2018-08-22T02:05:09.961Z,0.00
2018-08-22T02:06:09.928Z,0.00
2018-08-22T02:07:09.897Z,0.00
2018-08-22T02:08:09.866Z,0.00
2018-08-22T02:09:09.835Z,0.00
2018-08-22T02:10:09.802Z,0.00
2018-08-22T02:11:09.767Z,0.00
2018-08-22T02:12:09.730Z,0.00
2018-08-22T02:13:09.698Z,0.00
2018-08-22T02:14:09.667Z,0.00
2018-08-22T02:15:09.636Z,0.00
2018-08-22T02:16:09.610Z,0.00
2018-08-22T02:17:09.570Z,0.00
2018-08-22T02:18:09.553Z,0.00
2018-08-22T02:19:09.507Z,0.00
2018-08-22T02:20:09.494Z,0.00
2018-08-22T02:21:09.447Z,0.00
2018-08-22T02:22:09.417Z,0.00
2018-08-22T02:23:09.377Z,0.00
2018-08-22T02:24:09.345Z,0.00
2018-08-22T02:25:09.393Z,0.00
2018-08-22T02:26:09.289Z,0.00
2018-08-22T02:27:09.256Z,0.00
2018-08-22T02:28:09.220Z,0.00
2018-08-22T02:29:09.185Z,0.00
2018-08-22T02:30:09.155Z,0.00
2018-08-22T02:31:09.115Z,0.00
2018-08-22T02:32:09.087Z,0.00
2018-08-22T02:33:09.070Z,0.00
2018-08-22T02:34:09.021Z,0.00
2018-08-22T02:35:08.993Z,0.00
2018-08-22T02:36:08.954Z,0.00
2018-08-22T02:37:08.922Z,0.00
2018-08-22T02:38:08.890Z,0.00
2018-08-22T02:39:08.859Z,0.00
2018-08-22T02:40:08.829Z,0.00
2018-08-22T02:41:08.793Z,0.00
2018-08-22T02:42:08.757Z,0.00
2018-08-22T02:43:08.727Z,0.00
2018-08-22T02:44:08.692Z,0.00
2018-08-22T02:45:08.655Z,0.00
2018-08-22T02:46:08.629Z,0.00
2018-08-22T02:47:08.595Z,0.00
2018-08-22T02:48:08.562Z,0.00
2018-08-22T02:49:08.523Z,0.00
2018-08-22T02:50:08.500Z,0.00
2018-08-22T02:51:08.463Z,0.00
2018-08-22T02:52:08.447Z,0.00
2018-08-22T02:53:08.402Z,0.00
2018-08-22T02:54:08.371Z,0.00
2018-08-22T02:55:08.333Z,0.00
2018-08-22T02:56:08.295Z,0.00
2018-08-22T02:57:08.267Z,0.00
2018-08-22T02:58:08.234Z,0.00
2018-08-22T02:59:08.215Z,0.00
2018-08-22T03:00:08.178Z,0.00
2018-08-22T03:01:08.136Z,0.00
2018-08-22T03:02:08.107Z,0.00
2018-08-22T03:03:08.069Z,0.00
2018-08-22T03:04:08.076Z,0.00
2018-08-22T03:05:08.005Z,0.00
2018-08-22T03:06:07.981Z,0.00
2018-08-22T03:07:07.946Z,0.00
2018-08-22T03:08:07.903Z,0.00
2018-08-22T03:09:07.869Z,0.00
2018-08-22T03:10:07.845Z,0.00
2018-08-22T03:11:07.805Z,0.00
2018-08-22T03:12:07.791Z,0.00
2018-08-22T03:13:07.745Z,0.00
2018-08-22T03:14:07.714Z,0.00
2018-08-22T03:15:07.672Z,0.00
2018-08-22T03:16:07.638Z,0.00
2018-08-22T03:17:07.605Z,0.00
2018-08-22T03:18:07.575Z,0.00
2018-08-22T03:19:07.542Z,0.00
2018-08-22T03:20:07.512Z,0.00
2018-08-22T03:21:07.474Z,0.00
2018-08-22T03:22:07.442Z,0.00
2018-08-22T03:23:07.411Z,0.00
2018-08-22T03:24:07.380Z,0.00
2018-08-22T03:25:07.351Z,0.00
2018-08-22T03:26:07.339Z,0.00
2018-08-22T03:27:07.277Z,0.00
2018-08-22T03:28:07.242Z,0.00
2018-08-22T03:29:07.210Z,0.00
2018-08-22T03:30:07.182Z,0.00
2018-08-22T03:31:07.148Z,0.00
2018-08-22T03:32:07.124Z,0.00
2018-08-22T03:33:07.085Z,0.00
2018-08-22T03:34:07.050Z,0.00
2018-08-22T03:35:07.017Z,0.00
2018-08-22T03:36:06.979Z,0.00
2018-08-22T03:37:06.953Z,0.00
2018-08-22T03:38:06.918Z,0.00
2018-08-22T03:39:06.884Z,0.00
2018-08-22T03:40:06.849Z,0.00
2018-08-22T03:41:06.815Z,0.00
2018-08-22T03:42:06.786Z,0.00
2018-08-22T03:43:06.753Z,0.00
2018-08-22T03:44:06.722Z,0.00
2018-08-22T03:45:06.690Z,0.00
2018-08-22T03:46:06.656Z,0.00
2018-08-22T03:47:06.619Z,0.00
2018-08-22T03:48:06.591Z,0.00
2018-08-22T03:49:06.551Z,0.00
2018-08-22T03:50:06.521Z,0.00
2018-08-22T03:51:06.491Z,0.00
2018-08-22T03:52:06.459Z,0.00
2018-08-22T03:53:06.421Z,0.00
2018-08-22T03:54:06.390Z,0.00
2018-08-22T04:06:58.011Z,0.00
2018-08-22T04:07:57.947Z,0.00
2018-08-22T04:08:57.908Z,0.00
2018-08-22T04:09:57.876Z,0.00
2018-08-22T04:10:57.835Z,0.00
2018-08-22T04:11:57.797Z,0.00
2018-08-22T04:12:57.764Z,0.00
2018-08-22T04:13:57.730Z,0.00
2018-08-22T04:14:57.717Z,0.00
2018-08-22T04:15:57.659Z,0.00
2018-08-22T04:16:57.620Z,0.00
2018-08-22T04:17:57.588Z,0.00
2018-08-22T04:18:57.551Z,0.00
2018-08-22T04:19:57.518Z,0.00
2018-08-22T04:20:57.488Z,0.00
2018-08-22T04:21:57.455Z,0.00
2018-08-22T04:22:57.426Z,0.00
2018-08-22T04:23:57.381Z,0.00
2018-08-22T04:24:57.346Z,0.00
2018-08-22T04:25:57.311Z,0.29
2018-08-22T04:26:57.284Z,0.57
2018-08-22T04:27:57.247Z,0.00
2018-08-22T04:28:57.211Z,0.00
2018-08-22T04:29:57.175Z,0.00
2018-08-22T04:30:57.184Z,0.00
2018-08-22T04:31:57.110Z,0.00
2018-08-22T04:32:57.079Z,0.00
2018-08-22T04:33:57.047Z,0.00
2018-08-22T04:34:57.016Z,0.00
2018-08-22T04:35:56.981Z,0.00
2018-08-22T04:36:56.942Z,0.00
2018-08-22T04:37:56.907Z,0.00
2018-08-22T04:38:56.875Z,0.09
2018-08-22T04:39:56.841Z,0.00
2018-08-22T04:40:56.811Z,0.00
2018-08-22T04:41:56.781Z,0.00
2018-08-22T04:42:56.741Z,0.00
2018-08-22T04:43:56.709Z,0.00
2018-08-22T04:44:56.677Z,0.00
2018-08-22T04:45:56.647Z,0.00
2018-08-22T04:46:56.613Z,0.00
2018-08-22T04:47:56.581Z,0.00
2018-08-22T04:48:56.546Z,0.00
2018-08-22T04:49:56.510Z,0.00
2018-08-22T04:50:56.479Z,0.00
2018-08-22T04:51:56.442Z,0.00
2018-08-22T04:52:56.414Z,0.00
2018-08-22T04:53:56.389Z,0.00
2018-08-22T04:54:56.349Z,0.00
2018-08-22T04:55:56.313Z,0.00
2018-08-22T04:56:56.282Z,0.00
2018-08-22T04:57:56.245Z,0.00
2018-08-22T04:58:56.223Z,0.00
2018-08-22T04:59:56.180Z,0.00
2018-08-22T05:00:56.145Z,0.00
2018-08-22T05:01:56.110Z,0.00
2018-08-22T05:02:56.078Z,0.00
2018-08-22T05:03:56.047Z,0.00
2018-08-22T05:04:56.017Z,0.00
2018-08-22T05:05:56.031Z,0.00
2018-08-22T05:06:55.951Z,0.09
2018-08-22T05:07:55.933Z,0.00
2018-08-22T05:08:55.879Z,0.57
2018-08-22T05:09:55.851Z,0.38
2018-08-22T05:10:55.812Z,1.15
2018-08-22T05:11:55.779Z,1.25
2018-08-22T05:12:55.749Z,1.63
2018-08-22T05:13:55.718Z,1.82
2018-08-22T05:14:55.681Z,2.40
2018-08-22T05:15:55.655Z,2.11
2018-08-22T05:16:55.616Z,2.98
2018-08-22T05:17:55.587Z,2.88
2018-08-22T05:18:55.561Z,3.08
2018-08-22T05:19:55.518Z,2.59
2018-08-22T05:20:55.485Z,2.98
2018-08-22T05:21:55.448Z,3.08
2018-08-22T05:22:55.417Z,2.40
2018-08-22T05:23:55.385Z,1.92
2018-08-22T05:24:55.356Z,1.73
2018-08-22T05:25:55.323Z,2.01
2018-08-22T05:26:55.291Z,2.40
2018-08-22T05:27:55.255Z,2.31
2018-08-22T05:28:55.222Z,2.21
2018-08-22T05:29:55.192Z,2.59
2018-08-22T05:30:55.169Z,2.98
2018-08-22T05:31:55.123Z,3.17
2018-08-22T05:32:55.091Z,3.46
2018-08-22T05:33:55.054Z,3.56
2018-08-22T05:34:55.022Z,4.03
2018-08-22T05:35:54.994Z,5.00
2018-08-22T05:36:54.960Z,5.57
2018-08-22T05:37:54.932Z,5.77
2018-08-22T05:38:54.898Z,6.35
2018-08-22T05:39:54.864Z,6.45
2018-08-22T05:40:54.828Z,6.54
2018-08-22T05:41:54.793Z,7.40
2018-08-22T05:42:54.761Z,7.40
2018-08-22T05:43:54.730Z,7.79
2018-08-22T05:44:54.698Z,7.50
2018-08-22T05:45:54.668Z,6.93
2018-08-22T05:46:54.632Z,7.02
2018-08-22T05:47:54.606Z,7.60
2018-08-22T05:48:54.568Z,7.98
2018-08-22T05:49:54.540Z,7.31
2018-08-22T05:50:54.505Z,7.50
2018-08-22T05:51:54.470Z,8.56
2018-08-22T05:52:54.436Z,8.85
2018-08-22T05:53:54.402Z,8.75
2018-08-22T05:54:54.376Z,9.04
2018-08-22T05:55:54.343Z,9.91
2018-08-22T05:56:54.306Z,9.33
2018-08-22T05:57:54.273Z,10.29
2018-08-22T05:58:54.242Z,9.91
2018-08-22T05:59:54.209Z,9.72
2018-08-22T06:00:54.182Z,10.00
2018-08-22T06:01:54.156Z,11.25
2018-08-22T06:02:54.111Z,9.81
2018-08-22T06:03:54.080Z,10.68
2018-08-22T06:04:54.050Z,12.13
2018-08-22T06:05:54.019Z,11.55
2018-08-22T06:06:53.994Z,13.67
2018-08-22T06:07:53.954Z,12.90
2018-08-22T06:08:53.920Z,13.38
2018-08-22T06:09:53.925Z,13.76
2018-08-22T06:10:53.868Z,13.76
2018-08-22T06:11:53.825Z,13.76
2018-08-22T06:12:53.797Z,14.25
2018-08-22T06:13:53.766Z,14.05
2018-08-22T06:14:53.756Z,14.15
2018-08-22T06:15:53.702Z,15.41
2018-08-22T06:16:53.683Z,17.14
2018-08-22T06:17:53.629Z,17.43
2018-08-22T06:18:53.602Z,19.26
2018-08-22T06:19:53.575Z,18.88
2018-08-22T06:20:53.533Z,18.97
2018-08-22T06:21:53.502Z,20.61
2018-08-22T06:22:53.469Z,21.28
2018-08-22T06:23:53.439Z,21.86
2018-08-22T06:24:53.408Z,22.53
2018-08-22T06:25:53.380Z,22.16
2018-08-22T06:26:53.348Z,21.88
2018-08-22T06:27:53.312Z,23.22
2018-08-22T06:28:53.279Z,23.41
2018-08-22T06:29:53.244Z,25.82
2018-08-22T06:30:53.214Z,24.86
2018-08-22T06:31:53.183Z,23.99
2018-08-22T06:32:53.157Z,23.41
2018-08-22T06:33:53.141Z,22.36
2018-08-22T06:34:53.088Z,26.03
2018-08-22T06:35:53.060Z,25.16
2018-08-22T06:36:53.028Z,25.93
2018-08-22T06:37:53.004Z,27.09
2018-08-22T06:38:52.966Z,27.96
2018-08-22T06:39:52.937Z,28.15
2018-08-22T06:40:52.899Z,29.69
2018-08-22T06:41:52.866Z,32.39
2018-08-22T06:42:52.833Z,32.78
2018-08-22T06:43:52.806Z,32.87
2018-08-22T06:44:52.778Z,34.52
2018-08-22T06:45:52.745Z,33.95
2018-08-22T06:46:52.715Z,32.89
2018-08-22T06:47:52.681Z,33.09
2018-08-22T06:48:52.647Z,31.35
2018-08-22T06:49:52.614Z,31.73
2018-08-22T06:50:52.591Z,34.53
2018-08-22T06:51:52.560Z,38.97
2018-08-22T06:52:52.561Z,40.80
2018-08-22T06:53:52.494Z,41.48
2018-08-22T06:54:52.459Z,40.12
2018-08-22T06:55:52.429Z,39.45
2018-08-22T06:56:52.400Z,40.42
2018-08-22T06:57:52.373Z,41.09
2018-08-22T06:58:52.346Z,40.51
2018-08-22T06:59:52.308Z,39.45
2018-08-22T07:00:52.288Z,39.47
2018-08-22T07:01:52.243Z,41.20
2018-08-22T07:02:52.211Z,39.47
2018-08-22T07:03:52.201Z,40.05
2018-08-22T07:04:52.152Z,43.62
2018-08-22T07:05:52.123Z,42.75
2018-08-22T07:06:52.089Z,44.39
2018-08-22T07:07:52.120Z,42.94
2018-08-22T07:08:52.028Z,45.57
2018-08-22T07:11:32.177Z,45.76
2018-08-22T07:12:24.016Z,49.53
2018-08-22T07:13:23.981Z,49.44
2018-08-22T07:14:23.960Z,47.99
2018-08-22T07:15:23.964Z,47.99
2018-08-22T07:16:23.893Z,49.44
2018-08-22T07:17:23.860Z,48.47
2018-08-22T07:18:23.827Z,48.37
2018-08-22T07:19:23.800Z,51.75
2018-08-22T07:20:23.772Z,54.46
2018-08-22T07:21:23.742Z,53.52
2018-08-22T07:22:23.712Z,53.81
2018-08-22T07:23:23.680Z,51.87
2018-08-22T07:24:23.647Z,54.29
2018-08-22T07:25:23.615Z,53.13
2018-08-22T07:26:23.590Z,54.68
2018-08-22T07:27:23.570Z,54.19
2018-08-22T07:28:23.533Z,52.94
2018-08-22T07:29:23.499Z,53.42
2018-08-22T07:30:23.463Z,53.81
2018-08-22T07:31:23.436Z,53.42
2018-08-22T07:32:23.405Z,53.91
2018-08-22T07:33:23.377Z,53.13
2018-08-22T07:34:23.348Z,53.55
2018-08-22T07:35:23.318Z,53.83
2018-08-22T07:36:23.282Z,55.77
2018-08-22T07:37:23.256Z,56.05
2018-08-22T07:38:23.223Z,58.18
2018-08-22T07:39:23.192Z,57.99
2018-08-22T07:40:23.163Z,57.79
2018-08-22T07:41:23.135Z,57.99
2018-08-22T07:42:23.108Z,60.89
2018-08-22T07:43:23.074Z,60.99
2018-08-22T07:44:23.042Z,60.99
2018-08-22T07:45:23.016Z,61.47
2018-08-22T07:46:22.988Z,61.89
2018-08-22T07:47:22.964Z,60.44
2018-08-22T07:48:22.923Z,60.53
2018-08-22T07:49:22.894Z,60.92
2018-08-22T07:50:22.958Z,60.53
2018-08-22T07:51:22.832Z,62.47
2018-08-22T07:52:22.871Z,61.50
2018-08-22T07:53:22.853Z,62.56
2018-08-22T07:54:22.752Z,61.50
2018-08-22T07:55:22.729Z,60.53
2018-08-22T07:56:22.687Z,60.63
2018-08-22T07:57:22.652Z,61.21
2018-08-22T07:58:22.621Z,60.44
2018-08-22T07:59:22.596Z,60.24
2018-08-22T08:00:22.564Z,60.72
2018-08-22T08:01:22.538Z,61.02
2018-08-22T08:02:22.501Z,60.05
2018-08-22T08:03:22.474Z,61.21
2018-08-22T08:04:22.456Z,61.30
2018-08-22T08:05:22.420Z,60.92
2018-08-22T08:06:22.388Z,61.89
2018-08-22T08:07:22.358Z,62.66
2018-08-22T08:08:22.324Z,62.21
2018-08-22T08:09:22.293Z,62.69
2018-08-22T08:10:22.266Z,63.37
2018-08-22T08:11:22.238Z,63.66
2018-08-22T08:12:22.207Z,64.92
2018-08-22T08:13:22.181Z,64.62
2018-08-22T08:14:22.150Z,64.82
2018-08-22T08:15:22.119Z,66.17
2018-08-22T08:16:22.086Z,65.79
2018-08-22T08:17:22.057Z,64.92
2018-08-22T08:18:22.031Z,63.18
2018-08-22T08:19:22.005Z,62.34
2018-08-22T08:20:21.970Z,63.95
2018-08-22T08:21:21.940Z,64.85
2018-08-22T08:22:21.912Z,65.11
2018-08-22T08:23:21.880Z,64.75
2018-08-22T08:24:21.851Z,65.01
2018-08-22T08:25:21.825Z,64.14
2018-08-22T08:26:21.796Z,64.75
2018-08-22T08:27:21.764Z,64.72
2018-08-22T08:28:21.741Z,66.02
2018-08-22T08:29:21.700Z,64.66
2018-08-22T08:30:21.672Z,64.66
2018-08-22T08:31:21.645Z,65.53
2018-08-22T08:32:21.616Z,65.24
2018-08-22T08:33:21.592Z,65.92
2018-08-22T08:34:21.552Z,65.17
2018-08-22T08:35:21.526Z,67.46
2018-08-22T08:36:21.501Z,66.72
2018-08-22T08:37:21.474Z,66.72
2018-08-22T08:38:21.442Z,66.63
2018-08-22T08:39:21.411Z,66.11
2018-08-22T08:40:21.379Z,66.82
2018-08-22T08:41:21.355Z,64.89
2018-08-22T08:42:21.318Z,66.05
2018-08-22T08:43:21.358Z,65.75
2018-08-22T08:44:21.268Z,67.40
2018-08-22T08:45:21.237Z,66.82
2018-08-22T08:46:21.209Z,68.76
2018-08-22T08:47:21.180Z,70.92
2018-08-22T08:48:21.145Z,69.95
2018-08-22T08:49:21.151Z,70.70
2018-08-22T08:50:21.094Z,71.47
2018-08-22T08:51:21.119Z,70.79
2018-08-22T08:52:21.028Z,71.41
2018-08-22T08:53:20.998Z,71.02
2018-08-22T08:54:20.968Z,71.50
2018-08-22T08:55:20.949Z,71.89
2018-08-22T08:56:20.914Z,72.09
2018-08-22T08:57:20.895Z,73.44
2018-08-22T08:58:20.860Z,74.51
2018-08-22T08:59:20.861Z,74.45
2018-08-22T09:00:20.795Z,73.64
2018-08-22T09:01:20.764Z,73.64
2018-08-22T09:02:20.756Z,73.54
2018-08-22T09:03:20.712Z,73.93
2018-08-22T09:04:20.685Z,73.93
2018-08-22T09:05:20.658Z,73.83
2018-08-22T09:06:20.622Z,73.35
2018-08-22T09:07:20.593Z,72.96
2018-08-22T09:08:20.569Z,72.38
2018-08-22T09:09:20.538Z,73.15
2018-08-22T09:10:20.538Z,72.96
2018-08-22T09:11:20.480Z,71.70
2018-08-22T09:12:20.520Z,71.80
2018-08-22T09:13:20.419Z,72.96
2018-08-22T09:14:20.388Z,72.22
2018-08-22T09:15:20.363Z,72.71
2018-08-22T09:16:20.335Z,73.96
2018-08-22T09:17:20.326Z,73.54
2018-08-22T09:18:20.293Z,73.48
2018-08-22T09:19:20.259Z,73.19
2018-08-22T09:20:20.218Z,74.54
2018-08-22T09:21:20.237Z,73.86
2018-08-22T09:22:20.197Z,73.86
2018-08-22T09:23:20.134Z,73.48
2018-08-22T09:24:20.131Z,72.71
2018-08-22T09:25:20.083Z,74.16
2018-08-22T09:26:20.047Z,76.10
2018-08-22T09:27:20.017Z,74.49
2018-08-22T09:28:19.993Z,74.97
2018-08-22T09:29:19.961Z,75.26
2018-08-22T09:30:19.933Z,75.61
2018-08-22T09:31:19.923Z,74.84
2018-08-22T09:32:19.873Z,75.32
2018-08-22T09:33:19.841Z,75.23
2018-08-22T09:34:19.813Z,75.94
2018-08-22T09:35:19.794Z,76.14
2018-08-22T09:36:19.763Z,76.32
2018-08-22T09:37:19.738Z,76.42
2018-08-22T09:38:19.705Z,76.42
2018-08-22T09:39:19.689Z,76.32
2018-08-22T09:40:19.666Z,76.23
2018-08-22T09:41:19.618Z,76.42
2018-08-22T09:42:19.591Z,76.14
2018-08-22T09:43:19.596Z,75.94
2018-08-22T09:44:19.532Z,76.65
2018-08-22T09:45:19.500Z,77.29
2018-08-22T09:46:19.492Z,77.39
2018-08-22T09:47:19.444Z,76.72
2018-08-22T09:48:19.418Z,76.32
2018-08-22T09:49:19.389Z,76.81
2018-08-22T09:50:19.361Z,76.58
2018-08-22T09:51:19.332Z,76.10
2018-08-22T09:52:19.299Z,76.29
2018-08-22T09:53:19.268Z,76.32
2018-08-22T09:54:19.247Z,76.52
2018-08-22T09:55:19.223Z,76.72
2018-08-22T09:56:19.193Z,77.11
2018-08-22T09:57:19.158Z,76.68
2018-08-22T09:58:19.184Z,76.52
2018-08-22T09:59:19.100Z,76.62
2018-08-22T10:00:19.133Z,76.52
2018-08-22T10:01:19.049Z,76.42
2018-08-22T10:02:19.022Z,76.62
2018-08-22T10:03:18.990Z,76.42
2018-08-22T10:04:18.967Z,76.52
2018-08-22T10:05:18.926Z,76.32
2018-08-22T10:06:18.940Z,77.24
2018-08-22T10:07:18.904Z,76.95
2018-08-22T10:21:23.352Z,77.57
2018-08-22T10:22:23.295Z,77.57
2018-08-22T10:23:23.277Z,77.57
2018-08-22T10:24:23.227Z,77.76
2018-08-22T10:25:23.202Z,77.57
2018-08-22T10:26:23.160Z,77.22
2018-08-22T10:27:23.133Z,77.31
2018-08-22T10:28:23.106Z,77.41
2018-08-22T10:29:23.074Z,77.90
2018-08-22T10:30:23.037Z,77.41
2018-08-22T10:31:23.014Z,77.51
2018-08-22T10:32:22.980Z,77.51
2018-08-22T10:33:22.947Z,77.90
2018-08-22T10:34:22.926Z,77.76
2018-08-22T10:35:22.913Z,77.12
2018-08-22T10:36:22.872Z,77.31
2018-08-22T10:37:22.836Z,77.22
2018-08-22T10:38:22.804Z,77.37
2018-08-22T10:39:22.783Z,77.90
2018-08-22T10:40:22.749Z,77.80
2018-08-22T10:41:22.714Z,77.80
2018-08-22T10:42:22.696Z,77.22
2018-08-22T10:43:22.661Z,77.22
2018-08-22T10:44:22.675Z,77.41
2018-08-22T10:45:22.599Z,77.15
2018-08-22T10:46:22.576Z,77.25
2018-08-22T10:47:22.546Z,77.06
2018-08-22T10:48:22.523Z,76.87
2018-08-22T10:49:22.495Z,77.25
2018-08-22T10:50:22.457Z,77.06
2018-08-22T10:51:22.430Z,77.45
2018-08-22T10:52:22.401Z,77.02
2018-08-22T10:53:22.377Z,77.55
2018-08-22T10:54:22.351Z,77.41
2018-08-22T10:55:22.383Z,77.31
2018-08-22T10:56:22.292Z,77.41
2018-08-22T10:57:22.265Z,77.51
2018-08-22T10:58:22.267Z,77.51
2018-08-22T10:59:22.204Z,77.18
2018-08-22T11:00:22.183Z,77.41
2018-08-22T11:01:22.154Z,77.51
2018-08-22T11:02:22.117Z,77.57
2018-08-22T11:03:22.093Z,77.57
2018-08-22T11:04:22.085Z,77.86
2018-08-22T11:05:22.032Z,77.76
2018-08-22T11:06:22.014Z,77.95
2018-08-22T11:07:21.982Z,77.67
2018-08-22T11:08:21.951Z,77.67
2018-08-22T11:09:21.925Z,77.02
2018-08-22T11:10:21.892Z,77.41
2018-08-22T11:11:21.869Z,77.80
2018-08-22T11:12:21.838Z,77.45
2018-08-22T11:13:21.807Z,77.25
2018-08-22T11:14:21.784Z,77.45
2018-08-22T11:15:21.756Z,77.64
2018-08-22T11:16:21.724Z,76.87
2018-08-22T11:17:21.701Z,76.97
2018-08-22T11:18:21.682Z,76.77
2018-08-22T11:19:21.643Z,76.87
2018-08-22T11:20:21.616Z,76.67
2018-08-22T11:21:21.597Z,76.87
2018-08-22T11:22:21.573Z,76.87
2018-08-22T11:23:21.528Z,76.81
2018-08-22T11:24:21.501Z,76.87
2018-08-22T11:25:21.473Z,77.55
2018-08-22T11:26:21.456Z,77.15
2018-08-22T11:27:21.428Z,76.48
2018-08-22T11:28:21.393Z,76.97
2018-08-22T11:29:21.371Z,76.67
2018-08-22T11:30:21.331Z,76.77
2018-08-22T11:31:21.305Z,76.87
2018-08-22T11:32:21.286Z,77.06
2018-08-22T11:33:21.254Z,77.06
2018-08-22T11:34:21.279Z,76.57
2018-08-22T11:35:21.196Z,76.77
2018-08-22T11:36:21.167Z,76.77
2018-08-22T11:37:21.145Z,77.74
2018-08-22T11:38:21.115Z,77.06
2018-08-22T11:39:21.091Z,77.64
2018-08-22T11:40:21.057Z,77.64
2018-08-22T11:41:21.034Z,77.64
2018-08-22T11:42:20.998Z,76.97
2018-08-22T11:43:20.973Z,77.55
2018-08-22T11:44:20.946Z,77.55
2018-08-22T11:45:20.915Z,76.67
2018-08-22T11:46:20.895Z,77.00
2018-08-22T11:47:20.867Z,77.10
2018-08-22T11:48:20.834Z,76.12
2018-08-22T11:49:20.804Z,76.22
2018-08-22T11:50:20.781Z,76.12
2018-08-22T11:51:20.756Z,76.90
2018-08-22T11:52:20.725Z,76.32
2018-08-22T11:53:20.699Z,76.12
2018-08-22T11:54:20.664Z,76.51
2018-08-22T11:55:20.639Z,76.22
2018-08-22T11:56:20.612Z,76.12
2018-08-22T11:57:20.584Z,76.17
2018-08-22T11:58:20.559Z,76.26
2018-08-22T11:59:20.531Z,75.68
2018-08-22T12:00:20.503Z,76.07
2018-08-22T12:01:20.482Z,75.84
2018-08-22T12:02:20.448Z,75.84
2018-08-22T12:03:20.420Z,76.22
2018-08-22T12:04:20.392Z,76.42
2018-08-22T12:05:20.367Z,75.78
2018-08-22T12:06:20.332Z,76.07
2018-08-22T12:07:20.310Z,75.58
2018-08-22T12:08:20.284Z,75.58
2018-08-22T12:09:20.251Z,75.64
2018-08-22T12:10:20.229Z,76.22
2018-08-22T12:11:20.207Z,76.03
2018-08-22T12:12:20.176Z,76.22
2018-08-22T12:13:20.148Z,76.35
2018-08-22T12:14:20.113Z,76.32
2018-08-22T12:15:20.089Z,75.54
2018-08-22T12:16:20.064Z,76.51
2018-08-22T12:17:20.036Z,76.32
2018-08-22T12:18:20.009Z,76.61
2018-08-22T12:19:19.981Z,76.03
2018-08-22T12:20:19.950Z,76.22
2018-08-22T12:21:19.928Z,76.55
2018-08-22T12:22:19.902Z,76.32
2018-08-22T12:23:19.892Z,75.78
2018-08-22T12:24:19.845Z,75.48
2018-08-22T12:25:19.818Z,75.68
2018-08-22T12:26:19.792Z,75.87
2018-08-22T12:27:19.759Z,75.48
2018-08-22T12:28:19.733Z,75.38
2018-08-22T12:29:19.701Z,75.78
2018-08-22T12:30:19.685Z,75.97
2018-08-22T12:31:19.657Z,75.58
2018-08-22T12:32:19.625Z,76.26
2018-08-22T12:33:19.601Z,76.17
2018-08-22T12:34:19.564Z,75.58
2018-08-22T12:35:19.540Z,75.58
2018-08-22T12:36:19.518Z,75.32
2018-08-22T12:37:19.489Z,75.03
2018-08-22T12:38:19.455Z,75.91
2018-08-22T12:39:19.431Z,75.42
2018-08-22T12:40:19.408Z,75.78
2018-08-22T12:41:19.376Z,75.19
2018-08-22T12:42:19.354Z,74.71
2018-08-22T12:43:19.322Z,75.03
2018-08-22T12:44:19.296Z,75.32
2018-08-22T12:45:19.283Z,74.65
2018-08-22T12:46:19.237Z,75.03
2018-08-22T12:47:19.213Z,74.51
2018-08-22T12:48:19.186Z,74.61
2018-08-22T12:49:19.160Z,74.84
2018-08-22T12:50:19.149Z,74.45
2018-08-22T12:51:19.107Z,74.26
2018-08-22T12:52:19.077Z,74.61
2018-08-22T12:53:19.047Z,75.09
2018-08-22T12:54:19.029Z,75.09
2018-08-22T12:55:18.996Z,75.09
2018-08-22T12:56:18.973Z,75.38
2018-08-22T12:57:19.012Z,75.38
2018-08-22T12:58:18.909Z,75.78
2018-08-22T12:59:18.889Z,75.78
2018-08-22T13:00:18.856Z,75.58
2018-08-22T13:01:18.829Z,75.78
2018-08-22T13:02:18.808Z,74.99
2018-08-22T13:03:18.781Z,75.48
2018-08-22T13:04:18.751Z,75.29
2018-08-22T13:05:18.728Z,75.38
2018-08-22T13:06:18.692Z,74.80
2018-08-22T13:07:18.666Z,74.61
2018-08-22T13:08:18.645Z,75.48
2018-08-22T13:09:18.616Z,75.13
2018-08-22T13:10:18.583Z,75.03
2018-08-22T13:11:18.562Z,75.29
2018-08-22T13:12:18.540Z,74.99
2018-08-22T13:13:18.519Z,76.07
2018-08-22T13:14:18.481Z,75.29
2018-08-22T13:15:18.450Z,75.87
2018-08-22T13:16:18.422Z,74.99
2018-08-22T13:17:18.402Z,75.29
2018-08-22T13:18:18.372Z,74.84
2018-08-22T13:19:18.342Z,74.90
2018-08-22T13:20:18.316Z,74.93
2018-08-22T13:21:18.291Z,74.74
2018-08-22T13:22:18.261Z,74.16
2018-08-22T13:23:18.231Z,74.35
2018-08-22T13:24:18.207Z,74.55
2018-08-22T13:25:18.180Z,74.55
2018-08-22T13:26:18.147Z,74.55
2018-08-22T13:27:18.121Z,74.65
2018-08-22T13:28:18.100Z,74.93
2018-08-22T13:29:18.063Z,75.13